OTBDVCBI

Guest
Details From OTBD - Doha Intl
To VCBI - Bandaranaike Intl Colombo
Flight Number -
Tags Generated
Created
Modified
Stats Distance 1,954 nm / 3,620 km
Max Altitude 0 ft / 0 m
Waypoints 3
Social Downloads 0
Likes 0
Share VATSIM

Download

Looking for another format? Having issues loading an existing format? Contact us
Advertisement - Login to hide

Notes

Generated

Route

OTBD KAT VCBI

ID Type Via Altitude Latitude Longitude Leg Dist Tot Dist Heading (true) Name
O OTBD APT - 0 ft / 0 m 25.28022˚ 51.55653˚ - 0 nm - -
KAT VOR - 0 ft / 0 m 7.16127˚ 79.86850˚ 1953 nm 1953 nm 119° / 127° BANDARANAIKE VOR-DME
O VCBI APT - 0 ft / 0 m 7.16874˚ 79.87491˚ 0 nm 1954 nm 40° / 40° -

Altitude Profile

Advertisement - Login to hide

Weather


0- 5 10 15 20 25 30 35+ Temperature / ° C

Clouds and Precipitation
Forecast for 2017-12-17 12:00 UTC. Updated an hour ago

Ground ~20,000 ft ~40,000 ft Winds

OTBD

Details ICAO OTBD (DOH)
Name DOHA INTL
Region Qatar
Timezone Asia/Qatar (UTC+3.0)
Stats Elevation 35 ft / 11 m (AMSL)
Location 25.261056° 51.564999°
Runways 1
Magnetic Variation 2.481° E

METAR

OTBD 171000Z 01011KT 340V040 9999 SCT035 22/13 Q1019 NOSIG

Decode

TAF

TAF OTBD 170515Z 1706/1812 34009KT 9000 NSC TEMPO 1711/1714 03013KT TEMPO 1709/1715 FEW030 SCT100

Decode

Departure Runways

ID Width Length Bearing (true) Bearing (mag) Surface Threshold Offset Overrun Length
16 151 ft / 46 m 15,065 ft / 4,592 m 158.20° 155.72° Asphalt 2,460 ft / 750 m 98 ft / 30 m
34 151 ft / 46 m 15,065 ft / 4,592 m 338.21° 335.73° Asphalt 0 ft / 0 m 460 ft / 140 m

VCBI

Details ICAO VCBI (CMB)
Name BANDARANAIKE INTL COLOMBO
Region Sri Lanka
Timezone Asia/Colombo (UTC+5.5)
Stats Elevation 30 ft / 9 m (AMSL)
Location 7.180754° 79.884118°
Runways 1
Magnetic Variation 2.067° W

METAR

VCBI 171010Z 03014KT 9999 FEW018 32/21 Q1009 NOSIG

Decode

TAF

Not found

Destination Runways

ID Width Length Bearing (true) Bearing (mag) Surface Threshold Offset Overrun Length
04 148 ft / 45 m 11,018 ft / 3,358 m 37.25° 39.32° Asphalt 0 ft / 0 m 215 ft / 66 m
22 148 ft / 45 m 11,018 ft / 3,358 m 217.25° 219.32° Asphalt 0 ft / 0 m 300 ft / 91 m

Approach Navaids

Runway Type Ident Frequency Range Bearing (true) Bearing (mag) Slope Elevation
04 Localiser IKW 109.90 MHz 18 nm / 33 km 36.30° 38.37° - 27 ft / 8 m (AMSL)
04 Glidescope IKW 109.90 MHz 10 nm / 19 km 37.25° 39.31° 3.00° 24 ft / 7 m (AMSL)
04 DME IKW 109.90 MHz 18 nm / 33 km - - - 39 ft / 12 m (AMSL)
22 Localiser IKA 110.30 MHz 18 nm / 33 km 218.17° 220.23° - 25 ft / 8 m (AMSL)
22 Glidescope IKA 110.30 MHz 10 nm / 19 km 217.25° 219.31° 3.00° 24 ft / 7 m (AMSL)
22 DME IKA 110.30 MHz 18 nm / 33 km - - - 24 ft / 7 m (AMSL)

Popular Alternatives